createdAt,value
2022-10-08T00:01:19.766Z,15.25
2022-10-08T00:03:56.625Z,20.27
2022-10-08T00:06:32.283Z,20.98
2022-10-08T00:09:08.047Z,15.30
2022-10-08T00:11:42.651Z,14.93
2022-10-08T00:14:16.412Z,17.02
2022-10-08T00:16:50.091Z,14.50
2022-10-08T00:19:25.134Z,18.63
2022-10-08T00:21:58.919Z,11.45
2022-10-08T00:24:32.900Z,13.30
2022-10-08T00:27:06.442Z,19.40
2022-10-08T00:29:41.035Z,10.75
2022-10-08T00:32:14.579Z,14.60
2022-10-08T00:34:49.628Z,11.95
2022-10-08T00:37:23.217Z,17.27
2022-10-08T00:39:56.974Z,25.55
2022-10-08T00:42:30.511Z,11.43
2022-10-08T00:45:05.678Z,14.15
2022-10-08T00:47:46.108Z,10.30
2022-10-08T00:50:26.348Z,12.50
2022-10-08T00:53:03.537Z,18.17
2022-10-08T00:55:43.548Z,11.32
2022-10-08T00:58:20.661Z,12.00
2022-10-08T01:00:54.874Z,15.52
2022-10-08T01:03:28.334Z,15.88
2022-10-08T01:06:12.773Z,12.90
2022-10-08T01:08:54.649Z,14.10
2022-10-08T01:11:44.844Z,16.58
2022-10-08T01:14:32.460Z,12.43
2022-10-08T01:17:13.700Z,17.95
2022-10-08T01:20:17.679Z,13.38
2022-10-08T01:23:42.997Z,14.40
2022-10-08T01:26:42.693Z,20.63
2022-10-08T01:29:23.171Z,18.17
2022-10-08T01:32:03.350Z,20.08
2022-10-08T01:34:42.522Z,20.33
2022-10-08T01:37:22.580Z,13.52
2022-10-08T01:39:59.829Z,12.18
2022-10-08T01:42:36.371Z,15.60
2022-10-08T01:45:16.607Z,14.98
2022-10-08T01:47:51.133Z,13.88
2022-10-08T01:50:29.777Z,20.88
2022-10-08T01:53:10.783Z,18.80
2022-10-08T01:55:49.094Z,11.80
2022-10-08T01:58:30.399Z,16.73
2022-10-08T02:01:11.410Z,20.67
2022-10-08T02:04:05.264Z,8.55
2022-10-08T02:06:42.916Z,15.52
2022-10-08T02:09:16.819Z,14.35
2022-10-08T02:11:50.367Z,15.98
2022-10-08T02:14:26.549Z,14.75
2022-10-08T02:17:10.745Z,14.27
2022-10-08T02:19:52.942Z,15.68
2022-10-08T02:22:33.229Z,10.85
2022-10-08T02:25:12.559Z,18.63
2022-10-08T02:27:55.103Z,14.82
2022-10-08T02:30:34.893Z,8.30
2022-10-08T02:33:14.007Z,12.02
2022-10-08T02:35:51.749Z,10.85
2022-10-08T02:38:31.386Z,11.93
2022-10-08T02:41:07.949Z,26.90
2022-10-08T02:43:47.004Z,22.60
2022-10-08T02:46:24.909Z,18.63
2022-10-08T02:49:03.807Z,17.77
2022-10-08T02:51:41.751Z,18.67
2022-10-08T02:54:16.875Z,18.95
2022-10-08T02:56:55.647Z,15.13
2022-10-08T02:59:29.554Z,22.02
2022-10-08T03:02:05.340Z,16.80
2022-10-08T03:04:44.030Z,15.77
2022-10-08T03:07:18.802Z,14.68
2022-10-08T03:09:54.635Z,19.60
2022-10-08T03:12:28.447Z,18.05
2022-10-08T03:15:02.442Z,17.48
2022-10-08T03:17:39.342Z,16.27
2022-10-08T03:20:15.227Z,16.02
2022-10-08T03:22:49.272Z,18.60
2022-10-08T03:25:23.071Z,15.80
2022-10-08T03:27:57.078Z,18.35
2022-10-08T03:30:30.671Z,12.30
2022-10-08T03:33:04.493Z,12.32
2022-10-08T03:35:45.605Z,15.20
2022-10-08T03:38:19.300Z,14.65
2022-10-08T03:40:56.273Z,17.10
2022-10-08T03:43:33.244Z,17.98
2022-10-08T03:46:07.472Z,14.55
2022-10-08T03:48:42.373Z,19.05
2022-10-08T03:51:18.328Z,15.40
2022-10-08T03:53:52.193Z,16.67
2022-10-08T03:56:25.934Z,24.38
2022-10-08T03:59:01.405Z,18.83
2022-10-08T04:01:34.926Z,19.17
2022-10-08T04:04:08.758Z,17.27
2022-10-08T04:06:43.567Z,21.05
2022-10-08T04:09:17.354Z,10.68
2022-10-08T04:11:50.909Z,19.70
2022-10-08T04:14:24.656Z,17.42
2022-10-08T04:16:58.339Z,17.15
2022-10-08T04:19:32.040Z,18.92
2022-10-08T04:22:06.964Z,24.17
2022-10-08T04:24:40.779Z,15.95
2022-10-08T04:27:14.347Z,14.48
2022-10-08T04:29:48.154Z,18.40
2022-10-08T04:32:21.655Z,15.32
2022-10-08T04:34:55.398Z,13.25
2022-10-08T04:37:30.518Z,15.60
2022-10-08T04:40:04.421Z,15.77
2022-10-08T04:42:37.883Z,13.13
2022-10-08T04:45:11.943Z,12.52
2022-10-08T04:47:45.464Z,18.48
2022-10-08T04:50:19.134Z,19.90
2022-10-08T04:52:54.025Z,18.20
2022-10-08T04:55:27.753Z,19.25
2022-10-08T04:58:01.527Z,15.27
2022-10-08T05:00:36.527Z,19.80
2022-10-08T05:03:10.124Z,24.90
2022-10-08T05:05:46.275Z,16.88
2022-10-08T05:08:21.141Z,14.98
2022-10-08T05:10:54.883Z,19.33
2022-10-08T05:13:28.818Z,16.42
2022-10-08T05:16:05.190Z,19.92
2022-10-08T05:18:39.727Z,24.58
2022-10-08T05:21:15.871Z,13.73
2022-10-08T05:23:54.946Z,18.20
2022-10-08T05:26:56.179Z,12.50
2022-10-08T05:29:24.138Z,15.45
2022-10-08T05:31:58.048Z,17.65
2022-10-08T05:34:31.567Z,14.77
2022-10-08T05:37:05.448Z,16.30
2022-10-08T05:39:40.340Z,14.18
2022-10-08T05:42:14.080Z,18.05
2022-10-08T05:44:47.724Z,17.63
2022-10-08T05:47:21.568Z,17.25
2022-10-08T05:49:55.076Z,16.48
2022-10-08T05:52:28.901Z,15.65
2022-10-08T05:55:03.825Z,21.83
2022-10-08T05:57:37.655Z,15.48
2022-10-08T06:00:12.634Z,11.38
2022-10-08T06:02:46.867Z,15.75
2022-10-08T06:05:20.573Z,15.10
2022-10-08T06:07:57.458Z,16.77
2022-10-08T06:10:33.916Z,16.70
2022-10-08T06:13:07.687Z,18.27
2022-10-08T06:15:41.255Z,16.10
2022-10-08T06:18:15.004Z,12.75
2022-10-08T06:20:48.431Z,20.35
2022-10-08T06:23:24.374Z,13.52
2022-10-08T06:26:02.432Z,12.45
2022-10-08T06:28:38.127Z,13.85
2022-10-08T06:31:12.820Z,13.80
2022-10-08T06:33:47.128Z,14.65
2022-10-08T06:36:23.580Z,16.73
2022-10-08T06:38:58.509Z,11.75
2022-10-08T06:41:35.018Z,15.07
2022-10-08T06:44:12.244Z,10.70
2022-10-08T06:46:46.406Z,17.38
2022-10-08T06:49:26.519Z,16.75
2022-10-08T06:52:00.247Z,11.48
2022-10-08T06:54:34.178Z,15.48
2022-10-08T06:57:08.984Z,18.33
2022-10-08T06:59:42.813Z,13.25
2022-10-08T07:02:16.427Z,11.80
2022-10-08T07:04:50.149Z,10.45
2022-10-08T07:07:23.787Z,12.60
2022-10-08T07:09:57.655Z,14.88
2022-10-08T07:12:32.899Z,16.20
2022-10-08T07:15:08.940Z,14.13
2022-10-08T07:17:42.479Z,18.48
2022-10-08T07:20:16.501Z,19.17
2022-10-08T07:22:50.283Z,14.05
2022-10-08T07:25:24.330Z,8.70
2022-10-08T07:27:59.253Z,13.80
2022-10-08T07:30:33.065Z,19.50
2022-10-08T07:33:06.573Z,12.68
2022-10-08T07:35:40.281Z,11.25
2022-10-08T07:38:13.824Z,12.07
2022-10-08T07:40:48.575Z,14.48
2022-10-08T07:43:23.606Z,13.10
2022-10-08T07:45:57.484Z,10.55
2022-10-08T07:48:34.011Z,15.25
2022-10-08T07:51:12.723Z,13.73
2022-10-08T07:53:46.533Z,12.57
2022-10-08T07:56:21.642Z,13.40
2022-10-08T07:58:56.774Z,15.80
2022-10-08T08:01:32.774Z,14.73
2022-10-08T08:04:10.538Z,10.38
2022-10-08T08:06:47.426Z,13.70
2022-10-08T08:09:21.159Z,13.27
2022-10-08T08:11:55.211Z,9.77
2022-10-08T08:14:30.178Z,12.65
2022-10-08T08:17:03.976Z,11.57
2022-10-08T08:19:40.164Z,14.57
2022-10-08T08:22:13.945Z,10.98
2022-10-08T08:24:47.477Z,9.23
2022-10-08T08:27:22.096Z,9.55
2022-10-08T08:29:57.032Z,11.30
2022-10-08T08:32:31.266Z,13.73
2022-10-08T08:35:05.232Z,11.48
2022-10-08T08:37:39.031Z,10.23
2022-10-08T08:40:12.970Z,10.80
2022-10-08T08:42:54.658Z,10.32
2022-10-08T08:45:47.720Z,9.23
2022-10-08T08:48:25.052Z,13.43
2022-10-08T08:50:59.467Z,11.30
2022-10-08T08:53:34.733Z,11.18
2022-10-08T08:56:12.867Z,8.88
2022-10-08T08:58:52.576Z,11.52
2022-10-08T09:01:33.244Z,12.10
2022-10-08T09:04:12.904Z,8.40
2022-10-08T09:06:47.305Z,18.33
2022-10-08T09:09:27.550Z,10.82
2022-10-08T09:12:04.086Z,8.65
2022-10-08T09:14:41.981Z,13.18
2022-10-08T09:17:19.144Z,18.33
2022-10-08T09:19:52.921Z,9.02
2022-10-08T09:22:29.778Z,11.18
2022-10-08T09:25:07.162Z,12.95
2022-10-08T09:27:45.666Z,11.38
2022-10-08T09:30:38.096Z,9.07
2022-10-08T09:33:25.591Z,7.82
2022-10-08T09:35:59.624Z,8.80
2022-10-08T09:38:37.988Z,11.48
2022-10-08T09:41:19.741Z,8.90
2022-10-08T09:44:12.212Z,8.68
2022-10-08T09:46:46.617Z,8.18
2022-10-08T09:49:33.332Z,9.88
2022-10-08T09:52:16.953Z,6.72
2022-10-08T09:54:54.734Z,10.77
2022-10-08T09:57:30.668Z,6.97
2022-10-08T10:00:07.123Z,10.95
2022-10-08T10:02:40.944Z,6.07
2022-10-08T10:05:23.952Z,5.53
2022-10-08T10:07:58.535Z,5.65
2022-10-08T10:10:36.395Z,6.10
2022-10-08T10:13:15.167Z,5.50
2022-10-08T10:15:53.696Z,7.68
2022-10-08T10:18:33.551Z,11.00
2022-10-08T10:21:15.153Z,6.93
2022-10-08T10:23:57.249Z,4.63
2022-10-08T10:26:36.043Z,8.07
2022-10-08T10:29:15.573Z,5.28
2022-10-08T10:31:54.454Z,6.32
2022-10-08T10:34:30.336Z,2.70
2022-10-08T10:37:09.389Z,7.05
2022-10-08T10:39:51.886Z,6.00
2022-10-08T10:42:34.132Z,5.13
2022-10-08T10:45:19.469Z,7.63
2022-10-08T10:47:54.886Z,5.10
2022-10-08T10:50:37.674Z,7.65
2022-10-08T10:53:20.429Z,6.28
2022-10-08T10:56:04.575Z,10.60
2022-10-08T10:58:49.364Z,9.20
2022-10-08T11:01:32.210Z,6.85
2022-10-08T11:04:11.322Z,8.40
2022-10-08T11:07:03.206Z,6.65
2022-10-08T11:09:45.197Z,9.25
2022-10-08T11:12:29.674Z,8.93
2022-10-08T11:15:13.075Z,6.13
2022-10-08T11:18:02.926Z,10.82
2022-10-08T11:20:45.067Z,9.75
2022-10-08T11:23:34.424Z,6.30
2022-10-08T11:26:22.745Z,20.42
2022-10-08T11:29:07.278Z,16.52
2022-10-08T11:31:43.551Z,10.98
2022-10-08T11:34:23.263Z,7.70
2022-10-08T11:37:04.874Z,7.00
2022-10-08T11:39:48.480Z,5.43
2022-10-08T11:42:28.846Z,4.47
2022-10-08T11:45:16.801Z,7.57
2022-10-08T11:47:53.489Z,6.07
2022-10-08T11:50:31.238Z,2.85
2022-10-08T11:53:18.540Z,0.88
2022-10-08T11:55:55.137Z,4.28
2022-10-08T11:58:33.094Z,4.80
2022-10-08T12:01:08.717Z,2.72
2022-10-08T12:03:43.494Z,6.35
2022-10-08T12:06:24.347Z,1.85
2022-10-08T12:08:59.050Z,6.53
2022-10-08T12:11:53.543Z,3.58
2022-10-08T12:14:47.013Z,3.20
2022-10-08T12:17:20.770Z,4.95
2022-10-08T12:20:19.272Z,2.47
2022-10-08T12:23:01.632Z,3.97
2022-10-08T12:25:38.508Z,1.80
2022-10-08T12:28:50.398Z,4.55
2022-10-08T12:31:33.323Z,4.03
2022-10-08T12:34:17.683Z,6.43
2022-10-08T12:37:03.038Z,3.90
2022-10-08T12:39:39.097Z,5.97
2022-10-08T12:42:19.727Z,4.78
2022-10-08T12:45:06.721Z,3.10
2022-10-08T12:47:49.871Z,4.72
2022-10-08T12:50:47.608Z,7.13
2022-10-08T12:53:21.606Z,7.10
2022-10-08T12:55:59.326Z,4.97
2022-10-08T12:58:37.452Z,8.18
2022-10-08T13:01:17.041Z,5.77
2022-10-08T13:04:10.534Z,4.13
2022-10-08T13:06:44.311Z,4.63
2022-10-08T13:09:30.082Z,6.22
2022-10-08T13:12:06.083Z,9.40
2022-10-08T13:14:40.452Z,8.90
2022-10-08T13:17:28.699Z,8.52
2022-10-08T13:20:15.572Z,7.20
2022-10-08T13:22:49.541Z,9.98
2022-10-08T13:25:36.769Z,11.57
2022-10-08T13:28:13.445Z,13.40
2022-10-08T13:30:47.369Z,10.43
2022-10-08T13:33:24.776Z,6.28
2022-10-08T13:36:02.553Z,7.38
2022-10-08T13:38:37.387Z,11.20
2022-10-08T13:41:23.611Z,7.10
2022-10-08T13:43:57.707Z,6.95
2022-10-08T13:46:31.629Z,7.47
2022-10-08T13:49:17.930Z,7.25
2022-10-08T13:51:53.561Z,6.95
2022-10-08T13:54:30.205Z,8.10
2022-10-08T13:57:03.812Z,10.07
2022-10-08T13:59:37.932Z,9.00
2022-10-08T14:02:14.124Z,5.47
2022-10-08T14:04:48.476Z,7.30
2022-10-08T14:07:28.557Z,6.85
2022-10-08T14:10:03.741Z,6.50
2022-10-08T14:12:37.390Z,7.68
2022-10-08T14:15:13.734Z,4.97
2022-10-08T14:17:49.442Z,8.70
2022-10-08T14:20:23.500Z,8.88
2022-10-08T14:22:58.349Z,13.15
2022-10-08T14:25:32.238Z,8.38
2022-10-08T14:28:05.909Z,7.00
2022-10-08T14:30:39.675Z,10.45
2022-10-08T14:33:13.269Z,11.20
2022-10-08T14:35:47.045Z,10.25
2022-10-08T14:38:22.104Z,8.02
2022-10-08T14:40:55.819Z,10.63
2022-10-08T14:43:29.319Z,9.95
2022-10-08T14:46:03.449Z,10.15
2022-10-08T14:48:39.080Z,10.05
2022-10-08T14:51:13.494Z,6.57
2022-10-08T14:53:49.328Z,9.50
2022-10-08T14:56:23.454Z,10.98
2022-10-08T14:58:56.972Z,9.07
2022-10-08T15:01:31.220Z,9.25
2022-10-08T15:04:04.963Z,11.15
2022-10-08T15:06:38.860Z,8.18
2022-10-08T15:09:15.364Z,9.02
2022-10-08T15:11:49.211Z,7.82
2022-10-08T15:14:23.821Z,8.70
2022-10-08T15:16:57.615Z,10.30
2022-10-08T15:19:31.517Z,13.18
2022-10-08T15:22:05.581Z,9.90
2022-10-08T15:24:40.447Z,7.47
2022-10-08T15:27:17.318Z,10.95
2022-10-08T15:29:54.008Z,10.95
2022-10-08T15:32:30.543Z,9.60
2022-10-08T15:35:04.509Z,14.60
2022-10-08T15:37:38.270Z,9.95
2022-10-08T15:40:13.119Z,14.48
2022-10-08T15:42:52.215Z,15.13
2022-10-08T15:45:25.851Z,10.57
2022-10-08T15:47:59.854Z,8.07
2022-10-08T15:50:33.480Z,14.10
2022-10-08T15:53:07.726Z,9.02
2022-10-08T15:55:42.580Z,13.27
2022-10-08T15:58:27.549Z,10.13
2022-10-08T16:01:11.476Z,8.40
2022-10-08T16:03:46.724Z,9.50
2022-10-08T16:06:21.964Z,9.68
2022-10-08T16:08:57.487Z,6.13
2022-10-08T16:11:34.253Z,5.32
2022-10-08T16:14:10.814Z,6.75
2022-10-08T16:16:45.264Z,9.68
2022-10-08T16:19:21.057Z,6.85
2022-10-08T16:21:57.062Z,9.48
2022-10-08T16:24:30.891Z,14.75
2022-10-08T16:27:05.877Z,8.23
2022-10-08T16:29:39.605Z,11.30
2022-10-08T16:32:13.166Z,5.63
2022-10-08T16:34:59.281Z,8.68
2022-10-08T16:37:32.931Z,9.00
2022-10-08T16:40:07.602Z,13.57
2022-10-08T16:42:42.508Z,12.10
2022-10-08T16:45:16.587Z,11.27
2022-10-08T16:47:50.147Z,18.23
2022-10-08T16:50:23.929Z,12.93
2022-10-08T16:52:57.449Z,12.10
2022-10-08T16:55:31.226Z,6.80
2022-10-08T16:58:06.620Z,14.48
2022-10-08T17:00:40.682Z,7.80
2022-10-08T17:03:14.487Z,8.30
2022-10-08T17:05:48.195Z,7.15
2022-10-08T17:08:21.756Z,4.95
2022-10-08T17:10:55.747Z,6.65
2022-10-08T17:13:30.718Z,9.35
2022-10-08T17:16:07.340Z,8.88
2022-10-08T17:18:40.973Z,8.60
2022-10-08T17:21:16.026Z,7.93
2022-10-08T17:23:50.128Z,8.85
2022-10-08T17:26:25.424Z,8.50
2022-10-08T17:29:05.237Z,17.70
2022-10-08T17:31:39.928Z,8.95
2022-10-08T17:34:13.400Z,10.55
2022-10-08T17:36:47.688Z,10.43
2022-10-08T17:39:21.366Z,12.13
2022-10-08T17:41:55.718Z,14.50
2022-10-08T17:44:30.623Z,6.85
2022-10-08T17:47:04.359Z,17.77
2022-10-08T17:49:37.975Z,14.98
2022-10-08T17:52:11.822Z,11.77
2022-10-08T17:54:45.543Z,12.70
2022-10-08T17:57:19.286Z,10.30
2022-10-08T17:59:54.256Z,7.80
2022-10-08T18:02:28.443Z,11.32
2022-10-08T18:05:02.242Z,8.73
2022-10-08T18:07:36.045Z,10.95
2022-10-08T18:10:11.314Z,16.75
2022-10-08T18:12:45.122Z,9.82
2022-10-08T18:15:20.283Z,15.55
2022-10-08T18:17:54.035Z,12.38
2022-10-08T18:20:27.724Z,16.55
2022-10-08T18:23:01.506Z,8.82
2022-10-08T18:25:36.527Z,14.75
2022-10-08T18:28:10.348Z,12.02
2022-10-08T18:30:45.478Z,12.50
2022-10-08T18:33:23.986Z,13.68
2022-10-08T18:38:31.773Z,11.52
2022-10-08T18:41:14.172Z,9.35
2022-10-08T18:43:50.391Z,15.13
2022-10-08T18:46:25.700Z,14.32
2022-10-08T18:49:00.845Z,15.48
2022-10-08T18:51:35.363Z,12.68
2022-10-08T18:54:10.979Z,15.70
2022-10-08T18:56:44.601Z,13.93
2022-10-08T18:59:18.696Z,17.90
2022-10-08T19:01:58.318Z,16.35
2022-10-08T19:04:33.241Z,10.02
2022-10-08T19:07:06.828Z,11.13
2022-10-08T19:09:40.642Z,13.18
2022-10-08T19:12:14.243Z,13.25
2022-10-08T19:14:49.503Z,10.63
2022-10-08T19:17:24.462Z,17.50
2022-10-08T19:19:58.363Z,22.88
2022-10-08T19:22:31.874Z,14.60
2022-10-08T19:25:06.319Z,12.57
2022-10-08T19:27:39.908Z,10.88
2022-10-08T19:30:15.703Z,10.93
2022-10-08T19:32:50.833Z,12.80
2022-10-08T19:35:24.623Z,13.07
2022-10-08T19:37:58.333Z,14.00
2022-10-08T19:40:32.262Z,10.10
2022-10-08T19:43:05.776Z,15.82
2022-10-08T19:45:39.502Z,14.20
2022-10-08T19:48:14.391Z,15.25
2022-10-08T19:50:48.247Z,10.18
2022-10-08T19:53:21.749Z,7.75
2022-10-08T19:55:55.535Z,7.50
2022-10-08T19:58:29.350Z,11.60
2022-10-08T20:01:05.463Z,10.93
2022-10-08T20:03:40.941Z,10.75
2022-10-08T20:06:21.727Z,11.90
2022-10-08T20:09:01.154Z,14.15
2022-10-08T20:11:35.168Z,13.02
2022-10-08T20:14:09.736Z,14.38
2022-10-08T20:16:44.741Z,17.83
2022-10-08T20:19:22.605Z,14.65
2022-10-08T20:21:58.008Z,18.83
2022-10-08T20:24:31.899Z,11.85
2022-10-08T20:27:05.791Z,13.05
2022-10-08T20:29:39.573Z,9.50
2022-10-08T20:32:13.756Z,14.25
2022-10-08T20:34:48.808Z,12.48
2022-10-08T20:37:22.666Z,10.80
2022-10-08T20:39:56.367Z,12.57
2022-10-08T20:42:32.181Z,16.63
2022-10-08T20:45:07.445Z,17.02
2022-10-08T20:47:41.361Z,19.38
2022-10-08T20:50:16.483Z,16.73
2022-10-08T20:52:50.839Z,13.13
2022-10-08T20:55:25.360Z,13.98
2022-10-08T20:57:59.430Z,19.80
2022-10-08T21:00:33.957Z,14.32
2022-10-08T21:03:07.895Z,23.25
2022-10-08T21:05:45.615Z,15.82
2022-10-08T21:08:19.382Z,16.40
2022-10-08T21:10:53.138Z,18.20
2022-10-08T21:13:26.828Z,10.80
2022-10-08T21:16:01.627Z,29.65
2022-10-08T21:18:36.694Z,10.70
2022-10-08T21:21:13.301Z,16.40
2022-10-08T21:23:49.041Z,13.55
2022-10-08T21:26:24.354Z,11.65
2022-10-08T21:28:59.832Z,8.68
2022-10-08T21:31:37.338Z,10.07
2022-10-08T21:34:12.463Z,22.42
2022-10-08T21:36:47.354Z,14.75
2022-10-08T21:39:21.222Z,11.40
2022-10-08T21:41:57.972Z,14.20
2022-10-08T21:44:31.694Z,17.27
2022-10-08T21:47:05.399Z,10.90
2022-10-08T21:49:39.136Z,16.45
2022-10-08T21:52:14.167Z,16.95
2022-10-08T21:54:47.886Z,16.27
2022-10-08T21:57:21.372Z,12.45
2022-10-08T21:59:55.197Z,12.82
2022-10-08T22:02:28.826Z,16.90
2022-10-08T22:05:03.062Z,9.63
2022-10-08T22:07:37.957Z,13.20
2022-10-08T22:10:11.768Z,16.15
2022-10-08T22:12:45.598Z,14.77
2022-10-08T22:15:19.454Z,19.88
2022-10-08T22:17:52.892Z,10.50
2022-10-08T22:20:26.980Z,11.30
2022-10-08T22:23:01.870Z,15.10
2022-10-08T22:25:35.596Z,12.80
2022-10-08T22:28:09.390Z,13.25
2022-10-08T22:30:43.196Z,11.35
2022-10-08T22:33:17.345Z,19.10
2022-10-08T22:35:51.116Z,15.75
2022-10-08T22:38:26.049Z,15.68
2022-10-08T22:41:04.129Z,20.27
2022-10-08T22:43:38.249Z,16.88
2022-10-08T22:46:14.915Z,13.48
2022-10-08T22:48:48.841Z,10.45
2022-10-08T22:51:23.268Z,10.88
2022-10-08T22:53:58.668Z,11.93
2022-10-08T22:56:33.480Z,21.38
2022-10-08T22:59:07.043Z,16.90
2022-10-08T23:01:40.882Z,13.00
2022-10-08T23:04:14.307Z,15.90
2022-10-08T23:06:48.084Z,13.38
2022-10-08T23:09:22.934Z,13.15
2022-10-08T23:11:56.718Z,17.58
2022-10-08T23:14:30.289Z,15.63
2022-10-08T23:17:04.202Z,14.82
2022-10-08T23:19:37.863Z,14.52
2022-10-08T23:22:12.297Z,15.43
2022-10-08T23:24:47.275Z,12.63
2022-10-08T23:27:20.983Z,8.13
2022-10-08T23:29:56.079Z,12.90
2022-10-08T23:32:30.123Z,17.60
2022-10-08T23:35:03.601Z,13.40
2022-10-08T23:37:37.536Z,12.10
2022-10-08T23:40:12.528Z,11.38
2022-10-08T23:42:46.559Z,13.02
2022-10-08T23:45:20.395Z,10.20
2022-10-08T23:47:54.172Z,13.65
2022-10-08T23:50:28.864Z,14.10
2022-10-08T23:53:02.615Z,5.18
2022-10-08T23:55:37.527Z,13.05
2022-10-08T23:58:11.263Z,12.52
